createdAt,value
2018-11-06T00:03:14.341Z,108.07
2018-11-06T00:05:42.088Z,111.67
2018-11-06T00:08:10.426Z,120.53
2018-11-06T00:10:38.757Z,116.03
2018-11-06T00:13:07.093Z,114.30
2018-11-06T00:15:36.005Z,117.77
2018-11-06T00:18:03.751Z,107.23
2018-11-06T00:20:32.670Z,120.70
2018-11-06T00:23:01.010Z,121.50
2018-11-06T00:25:28.750Z,106.27
2018-11-06T00:27:57.674Z,111.00
2018-11-06T00:30:26.013Z,104.07
2018-11-06T00:32:53.759Z,108.03
2018-11-06T00:35:22.094Z,122.93
2018-11-06T00:37:51.017Z,107.93
2018-11-06T00:40:18.756Z,117.97
2018-11-06T00:42:47.092Z,112.03
2018-11-06T00:45:16.007Z,110.67
2018-11-06T00:47:44.344Z,117.80
2018-11-06T00:50:12.666Z,107.57
2018-11-06T00:52:41.002Z,115.40
2018-11-06T00:55:08.760Z,118.57
2018-11-06T00:57:37.668Z,112.93
2018-11-06T01:00:05.415Z,124.57
2018-11-06T01:02:33.741Z,116.57
2018-11-06T01:05:02.121Z,118.67
2018-11-06T01:07:30.408Z,107.03
2018-11-06T01:09:58.743Z,113.03
2018-11-06T01:12:27.071Z,119.23
2018-11-06T01:14:55.394Z,118.23
2018-11-06T01:17:24.303Z,109.93
2018-11-06T01:19:52.051Z,115.60
2018-11-06T01:22:20.973Z,116.80
2018-11-06T01:24:49.303Z,111.37
2018-11-06T01:27:17.630Z,107.93
2018-11-06T01:29:45.384Z,111.47
2018-11-06T01:32:14.303Z,120.43
2018-11-06T01:34:42.049Z,107.57
2018-11-06T01:37:10.388Z,105.83
2018-11-06T01:39:38.715Z,107.13
2018-11-06T01:42:07.050Z,107.80
2018-11-06T01:44:35.377Z,111.03
2018-11-06T01:47:03.715Z,101.53
2018-11-06T01:49:32.646Z,106.90
2018-11-06T01:52:00.381Z,102.20
2018-11-06T01:54:28.708Z,101.47
2018-11-06T01:56:57.067Z,100.80
2018-11-06T01:59:25.980Z,101.23
2018-11-06T02:01:54.313Z,101.23
2018-11-06T02:04:22.656Z,101.13
2018-11-06T02:06:50.404Z,95.27
2018-11-06T02:09:18.735Z,104.63
2018-11-06T02:11:47.645Z,94.47
2018-11-06T02:14:15.396Z,104.47
2018-11-06T02:16:43.734Z,107.70
2018-11-06T02:19:12.663Z,100.17
2018-11-06T02:21:40.998Z,106.70
2018-11-06T02:24:08.748Z,106.80
2018-11-06T02:26:37.185Z,97.33
2018-11-06T02:29:05.405Z,101.13
2018-11-06T02:31:34.321Z,110.73
2018-11-06T02:34:02.648Z,112.53
2018-11-06T02:36:30.401Z,101.93
2018-11-06T02:38:58.741Z,124.93
2018-11-06T02:41:27.656Z,117.17
2018-11-06T02:43:55.409Z,123.97
2018-11-06T02:46:24.318Z,118.50
2018-11-06T02:48:52.071Z,123.80
2018-11-06T02:51:20.984Z,116.40
2018-11-06T02:53:48.737Z,128.13
2018-11-06T02:56:17.070Z,134.63
2018-11-06T02:58:46.016Z,135.43
2018-11-06T03:01:14.348Z,143.57
2018-11-06T03:03:42.093Z,123.77
2018-11-06T03:06:10.423Z,120.13
2018-11-06T03:08:39.350Z,107.43
2018-11-06T03:11:07.689Z,114.17
2018-11-06T03:13:36.017Z,109.33
2018-11-06T03:16:04.352Z,114.57
2018-11-06T03:18:32.683Z,108.73
2018-11-06T03:21:01.013Z,113.80
2018-11-06T03:23:28.765Z,111.67
2018-11-06T03:25:57.097Z,107.90
2018-11-06T03:28:26.007Z,106.63
2018-11-06T03:30:53.757Z,106.63
2018-11-06T03:33:22.672Z,103.70
2018-11-06T03:35:50.420Z,105.27
2018-11-06T03:38:19.324Z,99.17
2018-11-06T03:40:47.652Z,106.80
2018-11-06T03:43:15.992Z,101.10
2018-11-06T03:45:43.743Z,98.60
2018-11-06T03:48:12.646Z,95.07
2018-11-06T03:50:40.388Z,96.40
2018-11-06T03:53:08.717Z,88.60
2018-11-06T03:55:37.039Z,89.47
2018-11-06T03:58:05.380Z,76.20
2018-11-06T04:00:34.295Z,72.30
2018-11-06T04:03:02.578Z,77.97
2018-11-06T04:05:30.364Z,73.67
2018-11-06T04:07:58.695Z,73.47
2018-11-06T04:10:27.596Z,71.00
2018-11-06T04:12:55.344Z,67.90
2018-11-06T04:15:23.670Z,69.30
2018-11-06T04:17:52.571Z,72.43
2018-11-06T04:20:20.893Z,65.67
2018-11-06T04:22:49.216Z,64.03
2018-11-06T04:25:17.538Z,64.47
2018-11-06T04:27:45.633Z,63.67
2018-11-06T04:30:13.623Z,62.67
2018-11-06T04:32:41.952Z,64.43
2018-11-06T04:35:11.084Z,59.27
2018-11-06T04:37:38.599Z,60.57
2018-11-06T04:40:06.924Z,63.17
2018-11-06T04:42:35.476Z,64.57
2018-11-06T04:45:04.177Z,63.13
2018-11-06T04:47:32.503Z,56.40
2018-11-06T04:50:00.261Z,62.97
2018-11-06T04:52:29.169Z,64.83
2018-11-06T04:54:57.496Z,62.47
2018-11-06T04:57:25.243Z,61.63
2018-11-06T04:59:53.572Z,61.83
2018-11-06T05:02:22.514Z,59.27
2018-11-06T05:04:50.852Z,59.63
2018-11-06T05:07:19.182Z,58.43
2018-11-06T05:09:47.521Z,66.93
2018-11-06T05:12:16.190Z,61.63
2018-11-06T05:14:43.955Z,59.83
2018-11-06T05:17:12.852Z,66.33
2018-11-06T05:19:41.173Z,62.53
2018-11-06T05:22:08.934Z,63.40
2018-11-06T05:24:37.299Z,70.80
2018-11-06T05:27:05.632Z,62.07
2018-11-06T05:29:33.921Z,65.43
2018-11-06T05:32:02.822Z,70.60
2018-11-06T05:34:30.573Z,66.70
2018-11-06T05:36:59.479Z,66.47
2018-11-06T05:39:27.875Z,125.17
2018-11-06T05:41:55.554Z,79.30
2018-11-06T05:44:24.473Z,69.37
2018-11-06T05:46:52.833Z,70.80
2018-11-06T05:49:20.583Z,65.23
2018-11-06T05:51:48.911Z,68.70
2018-11-06T05:54:17.845Z,69.63
2018-11-06T05:56:46.168Z,71.30
2018-11-06T05:59:13.926Z,74.83
2018-11-06T06:01:42.848Z,74.73
2018-11-06T06:04:11.459Z,72.97
2018-11-06T06:06:39.812Z,68.73
2018-11-06T06:09:07.690Z,75.30
2018-11-06T06:11:36.521Z,78.93
2018-11-06T06:14:04.265Z,71.17
2018-11-06T06:16:33.476Z,72.23
2018-11-06T06:19:01.800Z,72.90
2018-11-06T06:21:29.553Z,72.63
2018-11-06T06:23:58.470Z,71.80
2018-11-06T06:26:27.631Z,74.53
2018-11-06T06:28:55.447Z,66.63
2018-11-06T06:31:23.775Z,74.07
2018-11-06T06:33:52.111Z,70.93
2018-11-06T06:36:20.454Z,72.40
2018-11-06T06:38:48.240Z,73.03
2018-11-06T06:41:16.536Z,78.40
2018-11-06T06:43:44.886Z,74.27
2018-11-06T06:46:14.193Z,72.73
2018-11-06T06:48:42.467Z,72.07
2018-11-06T06:51:10.806Z,75.33
2018-11-06T06:53:39.121Z,78.23
2018-11-06T06:56:07.454Z,74.13
2018-11-06T06:58:35.784Z,81.43
2018-11-06T07:01:03.531Z,79.07
2018-11-06T07:03:31.860Z,72.57
2018-11-06T07:06:00.795Z,79.43
2018-11-06T07:08:28.539Z,77.53
2018-11-06T07:10:56.869Z,83.23
2018-11-06T07:13:25.782Z,72.73
2018-11-06T07:15:53.643Z,76.40
2018-11-06T07:18:22.676Z,77.40
2018-11-06T07:20:50.180Z,73.73
2018-11-06T07:23:19.087Z,75.23
2018-11-06T07:25:47.409Z,75.63
2018-11-06T07:28:15.748Z,72.97
2018-11-06T07:30:43.497Z,92.23
2018-11-06T07:33:12.409Z,79.23
2018-11-06T07:35:40.343Z,85.00
2018-11-06T07:38:08.483Z,79.37
2018-11-06T07:40:37.525Z,72.43
2018-11-06T07:43:05.148Z,71.53
2018-11-06T07:45:34.052Z,68.40
2018-11-06T07:48:02.404Z,74.20
2018-11-06T07:50:30.278Z,65.80
2018-11-06T07:52:58.482Z,63.57
2018-11-06T07:55:27.421Z,67.33
2018-11-06T07:57:55.757Z,68.20
2018-11-06T08:00:24.081Z,71.40
2018-11-06T08:02:52.416Z,67.63
2018-11-06T08:05:20.974Z,61.73
2018-11-06T08:07:48.614Z,64.07
2018-11-06T08:10:16.940Z,62.60
2018-11-06T08:12:45.842Z,62.27
2018-11-06T08:15:13.655Z,64.77
2018-11-06T08:17:41.925Z,59.70
2018-11-06T08:20:11.315Z,58.80
2018-11-06T08:22:39.052Z,57.60
2018-11-06T08:25:07.957Z,68.63
2018-11-06T08:27:36.315Z,61.50
2018-11-06T08:30:04.024Z,60.70
2018-11-06T08:32:33.213Z,56.70
2018-11-06T08:35:01.461Z,54.47
2018-11-06T08:37:29.789Z,53.97
2018-11-06T08:39:58.117Z,50.73
2018-11-06T08:42:27.095Z,53.23
2018-11-06T08:44:55.355Z,55.07
2018-11-06T08:47:23.681Z,53.43
2018-11-06T08:49:52.012Z,50.87
2018-11-06T08:52:20.334Z,52.03
2018-11-06T08:54:48.677Z,53.30
2018-11-06T08:57:16.993Z,54.23
2018-11-06T08:59:45.335Z,52.63
2018-11-06T09:02:13.658Z,53.27
2018-11-06T09:04:41.987Z,46.27
2018-11-06T09:07:10.326Z,44.50
2018-11-06T09:09:38.120Z,48.03
2018-11-06T09:12:07.029Z,46.23
2018-11-06T09:14:35.353Z,47.20
2018-11-06T09:17:03.715Z,45.53
2018-11-06T09:19:32.007Z,51.43
2018-11-06T09:22:00.376Z,48.93
2018-11-06T09:24:28.125Z,51.57
2018-11-06T09:26:56.453Z,46.40
2018-11-06T09:29:25.364Z,45.70
2018-11-06T09:31:53.691Z,47.47
2018-11-06T09:34:22.089Z,44.23
2018-11-06T09:36:50.434Z,41.30
2018-11-06T09:39:18.182Z,42.20
2018-11-06T09:41:46.514Z,41.63
2018-11-06T09:44:15.422Z,45.77
2018-11-06T09:46:43.749Z,42.93
2018-11-06T09:49:11.497Z,42.47
2018-11-06T09:51:39.821Z,38.40
2018-11-06T09:54:08.726Z,38.43
2018-11-06T09:56:37.056Z,37.60
2018-11-06T09:59:04.804Z,37.33
2018-11-06T10:01:33.131Z,34.93
2018-11-06T10:04:02.051Z,37.90
2018-11-06T10:06:29.894Z,34.57
2018-11-06T10:08:58.711Z,34.07
2018-11-06T10:11:27.253Z,32.00
2018-11-06T10:13:55.410Z,31.77
2018-11-06T10:16:23.156Z,32.77
2018-11-06T10:18:51.487Z,35.97
2018-11-06T10:21:19.828Z,32.33
2018-11-06T10:23:48.243Z,29.87
2018-11-06T10:26:17.154Z,33.93
2018-11-06T10:28:44.896Z,32.67
2018-11-06T10:31:13.812Z,36.63
2018-11-06T10:33:42.136Z,32.70
2018-11-06T10:36:10.472Z,30.23
2018-11-06T10:38:38.224Z,28.87
2018-11-06T10:41:06.551Z,30.60
2018-11-06T10:43:34.899Z,26.67
2018-11-06T10:46:03.800Z,35.10
2018-11-06T10:48:31.557Z,35.10
2018-11-06T10:51:00.471Z,36.27
2018-11-06T10:53:28.793Z,37.03
2018-11-06T10:55:56.533Z,32.57
2018-11-06T10:58:25.457Z,34.97
2018-11-06T11:00:53.775Z,33.37
2018-11-06T11:03:22.101Z,28.07
2018-11-06T11:05:50.431Z,29.43
2018-11-06T11:08:18.754Z,24.40
2018-11-06T11:10:46.508Z,33.20
2018-11-06T11:13:14.880Z,24.43
2018-11-06T11:15:43.262Z,25.00
2018-11-06T11:18:12.181Z,26.10
2018-11-06T11:20:40.545Z,29.27
2018-11-06T11:23:08.844Z,27.17
2018-11-06T11:25:36.662Z,22.77
2018-11-06T11:28:05.516Z,30.00
2018-11-06T11:30:33.265Z,22.63
2018-11-06T11:33:02.168Z,23.93
2018-11-06T11:35:29.918Z,28.50
2018-11-06T11:37:58.833Z,23.83
2018-11-06T11:40:27.154Z,26.17
2018-11-06T11:42:55.479Z,24.83
2018-11-06T11:45:23.232Z,21.47
2018-11-06T11:47:51.576Z,23.67
2018-11-06T11:50:19.911Z,25.77
2018-11-06T11:52:48.822Z,23.93
2018-11-06T11:55:16.572Z,30.40
2018-11-06T11:57:44.906Z,23.63
2018-11-06T12:00:13.336Z,21.17
2018-11-06T12:02:41.596Z,25.03
2018-11-06T12:05:09.937Z,21.50
2018-11-06T12:07:39.079Z,22.67
2018-11-06T12:10:07.195Z,19.83
2018-11-06T12:12:35.525Z,19.90
2018-11-06T12:15:03.746Z,22.97
2018-11-06T12:17:32.364Z,22.33
2018-11-06T12:20:00.690Z,26.07
2018-11-06T12:22:29.027Z,25.03
2018-11-06T12:24:56.832Z,20.20
2018-11-06T12:27:25.697Z,26.13
2018-11-06T12:29:54.039Z,21.43
2018-11-06T12:32:22.384Z,28.67
2018-11-06T12:34:50.727Z,28.83
2018-11-06T12:37:18.528Z,23.10
2018-11-06T12:39:47.427Z,26.13
2018-11-06T12:42:15.175Z,22.53
2018-11-06T12:44:44.079Z,22.60
2018-11-06T12:47:11.835Z,21.43
2018-11-06T12:49:40.769Z,23.33
2018-11-06T12:52:09.089Z,23.83
2018-11-06T12:54:37.409Z,24.40
2018-11-06T12:57:05.157Z,20.00
2018-11-06T12:59:34.323Z,22.33
2018-11-06T13:02:02.098Z,21.40
2018-11-06T13:04:30.427Z,26.37
2018-11-06T13:06:58.757Z,25.10
2018-11-06T13:09:27.089Z,21.50
2018-11-06T13:11:56.006Z,30.20
2018-11-06T13:14:24.378Z,30.03
2018-11-06T13:16:52.711Z,23.93
2018-11-06T13:19:20.453Z,22.20
2018-11-06T13:21:49.351Z,22.67
2018-11-06T13:24:17.695Z,22.77
2018-11-06T13:26:46.014Z,26.27
2018-11-06T13:29:14.923Z,36.67
2018-11-06T13:31:42.669Z,42.00
2018-11-06T13:34:11.582Z,30.10
2018-11-06T13:36:39.921Z,30.53
2018-11-06T13:39:08.250Z,30.00
2018-11-06T13:41:36.574Z,24.70
2018-11-06T13:44:05.063Z,26.60
2018-11-06T13:46:33.233Z,23.10
2018-11-06T13:49:01.567Z,24.37
2018-11-06T13:51:29.896Z,23.00
2018-11-06T13:53:57.648Z,30.00
2018-11-06T13:56:26.547Z,27.33
2018-11-06T13:58:54.289Z,26.10
2018-11-06T14:01:23.206Z,28.03
2018-11-06T14:03:51.551Z,33.93
2018-11-06T14:06:19.882Z,27.37
2018-11-06T14:08:47.632Z,30.87
2018-11-06T14:11:15.978Z,30.83
2018-11-06T14:13:44.895Z,30.40
2018-11-06T14:16:12.644Z,28.40
2018-11-06T14:18:41.580Z,34.90
2018-11-06T14:21:09.945Z,26.43
2018-11-06T14:23:37.653Z,27.67
2018-11-06T14:26:06.565Z,27.47
2018-11-06T14:28:34.319Z,29.37
2018-11-06T14:31:02.676Z,29.50
2018-11-06T14:33:31.581Z,30.93
2018-11-06T14:36:00.017Z,28.40
2018-11-06T14:38:28.266Z,33.30
2018-11-06T14:40:56.591Z,50.10
2018-11-06T14:43:24.944Z,35.90
2018-11-06T14:45:53.506Z,36.43
2018-11-06T14:48:21.136Z,30.87
2018-11-06T14:50:49.975Z,31.53
2018-11-06T14:53:18.304Z,29.10
2018-11-06T14:55:46.685Z,30.70
2018-11-06T14:58:14.960Z,60.40
2018-11-06T15:00:43.297Z,42.77
2018-11-06T15:03:11.326Z,39.97
2018-11-06T15:05:40.302Z,52.87
2018-11-06T15:08:07.996Z,51.87
2018-11-06T15:10:36.911Z,48.67
2018-11-06T15:13:05.239Z,44.40
2018-11-06T15:15:33.581Z,36.90
2018-11-06T15:18:01.910Z,38.57
2018-11-06T15:20:29.746Z,38.17
2018-11-06T15:22:58.840Z,34.70
2018-11-06T15:25:26.365Z,39.80
2018-11-06T15:27:54.691Z,35.20
2018-11-06T15:30:23.604Z,38.43
2018-11-06T15:32:52.593Z,35.23
2018-11-06T15:35:20.333Z,33.43
2018-11-06T15:37:49.237Z,31.70
2018-11-06T15:40:16.986Z,35.23
2018-11-06T15:42:45.898Z,37.40
2018-11-06T15:45:13.652Z,36.00
2018-11-06T15:47:42.562Z,34.93
2018-11-06T15:50:10.898Z,55.10
2018-11-06T15:52:39.241Z,50.00
2018-11-06T15:55:08.168Z,48.50
2018-11-06T15:57:36.504Z,44.67
2018-11-06T16:00:04.845Z,44.27
2018-11-06T16:02:32.598Z,57.63
2018-11-06T16:05:01.515Z,99.27
2018-11-06T16:07:29.267Z,45.33
2018-11-06T16:09:57.601Z,59.43
2018-11-06T16:12:25.929Z,65.80
2018-11-06T16:14:54.856Z,101.77
2018-11-06T16:17:22.611Z,115.43
2018-11-06T16:19:52.047Z,92.13
2018-11-06T16:22:20.822Z,85.40
2018-11-06T16:24:49.164Z,93.37
2018-11-06T16:27:16.915Z,104.37
2018-11-06T16:29:45.875Z,122.43
2018-11-06T16:32:13.592Z,83.33
2018-11-06T16:34:42.514Z,90.13
2018-11-06T16:37:10.354Z,106.17
2018-11-06T16:39:39.235Z,108.33
2018-11-06T16:42:07.559Z,132.30
2018-11-06T16:44:35.936Z,153.73
2018-11-06T16:47:04.375Z,164.97
2018-11-06T16:49:32.731Z,173.83
2018-11-06T16:52:01.147Z,172.27
2018-11-06T16:54:29.505Z,172.80
2018-11-06T16:56:57.966Z,166.47
2018-11-06T16:59:26.262Z,172.50
2018-11-06T17:01:54.585Z,168.50
2018-11-06T17:04:22.341Z,219.83
2018-11-06T17:06:51.262Z,187.87
2018-11-06T17:09:19.607Z,203.07
2018-11-06T17:11:48.048Z,217.17
2018-11-06T17:14:16.361Z,215.53
2018-11-06T17:16:44.105Z,198.30
2018-11-06T17:19:13.025Z,172.93
2018-11-06T17:21:41.373Z,154.77
2018-11-06T17:24:09.741Z,179.67
2018-11-06T17:26:38.319Z,171.47
2018-11-06T17:29:06.679Z,156.00
2018-11-06T17:31:34.436Z,174.00
2018-11-06T17:34:03.363Z,186.27
2018-11-06T17:36:31.202Z,183.53
2018-11-06T17:39:00.133Z,393.97
2018-11-06T17:41:27.964Z,294.93
2018-11-06T17:43:56.898Z,290.83
2018-11-06T17:46:25.369Z,299.47
2018-11-06T17:48:53.817Z,292.83
2018-11-06T17:51:22.392Z,203.27
2018-11-06T17:53:49.935Z,257.83
2018-11-06T17:56:18.933Z,215.20
2018-11-06T17:58:47.287Z,196.77
2018-11-06T18:01:15.072Z,195.00
2018-11-06T18:03:44.300Z,211.47
2018-11-06T18:06:12.358Z,183.90
2018-11-06T18:08:40.692Z,203.30
2018-11-06T18:11:09.265Z,160.87
2018-11-06T18:13:36.794Z,190.37
2018-11-06T18:16:05.721Z,196.07
2018-11-06T18:18:34.068Z,189.07
2018-11-06T18:21:02.410Z,196.63
2018-11-06T18:23:30.201Z,177.63
2018-11-06T18:25:59.205Z,172.30
2018-11-06T18:28:27.738Z,178.83
2018-11-06T18:30:55.845Z,226.27
2018-11-06T18:33:24.221Z,199.17
2018-11-06T18:35:52.562Z,175.23
2018-11-06T18:38:20.922Z,176.23
2018-11-06T18:40:49.252Z,159.97
2018-11-06T18:43:17.015Z,171.23
2018-11-06T18:45:46.259Z,172.37
2018-11-06T18:48:14.618Z,157.03
2018-11-06T18:50:42.963Z,161.30
2018-11-06T18:53:11.315Z,172.53
2018-11-06T18:55:39.665Z,158.93
2018-11-06T18:58:07.562Z,148.87
2018-11-06T19:00:35.913Z,146.57
2018-11-06T19:03:04.448Z,157.40
2018-11-06T19:05:33.508Z,131.73
2018-11-06T19:08:01.273Z,138.07
2018-11-06T19:10:30.459Z,146.93
2018-11-06T19:12:59.061Z,146.50
2018-11-06T19:15:26.829Z,155.53
2018-11-06T19:17:55.779Z,146.20
2018-11-06T19:20:23.685Z,154.13
2018-11-06T19:22:52.126Z,148.17
2018-11-06T19:25:22.424Z,152.10
2018-11-06T19:27:52.059Z,142.93
2018-11-06T19:30:20.488Z,152.80
2018-11-06T19:32:48.745Z,142.73
2018-11-06T19:35:17.165Z,140.43
2018-11-06T19:37:46.350Z,161.00
2018-11-06T19:40:15.324Z,163.43
2018-11-06T19:42:45.941Z,114.23
2018-11-06T19:45:20.135Z,133.17
2018-11-06T19:47:49.596Z,123.90
2018-11-06T19:50:22.260Z,85.63
2018-11-06T19:52:52.595Z,101.10
2018-11-06T19:55:21.553Z,233.37
2018-11-06T19:57:49.658Z,110.80
2018-11-06T20:00:18.618Z,138.33
2018-11-06T20:02:50.344Z,213.03
2018-11-06T20:05:19.225Z,88.50
2018-11-06T20:07:48.523Z,89.33
2018-11-06T20:10:16.803Z,69.03
2018-11-06T20:12:45.389Z,52.40
2018-11-06T20:15:13.140Z,43.83
2018-11-06T20:17:42.092Z,45.33
2018-11-06T20:20:10.455Z,44.27
2018-11-06T20:22:38.946Z,40.93
2018-11-06T20:25:07.319Z,35.77
2018-11-06T20:27:35.685Z,42.33
2018-11-06T20:30:04.131Z,37.27
2018-11-06T20:32:32.443Z,33.90
2018-11-06T20:35:01.767Z,36.43
2018-11-06T20:37:29.193Z,39.00
2018-11-06T20:39:57.470Z,32.97
2018-11-06T20:42:25.879Z,40.13
2018-11-06T20:44:53.638Z,39.93
2018-11-06T20:47:22.568Z,41.80
2018-11-06T20:49:51.065Z,39.90
2018-11-06T20:52:19.296Z,55.10
2018-11-06T20:54:47.631Z,71.53
2018-11-06T20:57:15.435Z,46.57
2018-11-06T20:59:44.399Z,36.30
2018-11-06T21:02:12.107Z,38.40
2018-11-06T21:04:41.011Z,40.50
2018-11-06T21:07:09.339Z,48.50
2018-11-06T21:09:37.759Z,48.07
2018-11-06T21:12:06.105Z,39.30
2018-11-06T21:14:34.442Z,36.33
2018-11-06T21:17:03.008Z,38.97
2018-11-06T21:19:31.774Z,37.13
2018-11-06T21:22:00.151Z,40.40
2018-11-06T21:24:28.057Z,44.73
2018-11-06T21:26:56.558Z,48.70
2018-11-06T21:29:25.137Z,61.70
2018-11-06T21:31:53.947Z,56.73
2018-11-06T21:34:22.364Z,56.47
2018-11-06T21:36:50.755Z,46.90
2018-11-06T21:39:18.551Z,43.13
2018-11-06T21:41:46.990Z,42.53
2018-11-06T21:44:15.727Z,45.07
2018-11-06T21:46:43.985Z,42.80
2018-11-06T21:49:13.715Z,44.60
2018-11-06T21:51:42.162Z,43.20
2018-11-06T21:54:09.916Z,41.27
2018-11-06T21:56:38.966Z,53.73
2018-11-06T21:59:06.725Z,63.33
2018-11-06T22:01:35.667Z,77.10
2018-11-06T22:04:04.009Z,75.73
2018-11-06T22:06:32.380Z,72.43
2018-11-06T22:09:00.680Z,65.50
2018-11-06T22:11:29.137Z,61.03
2018-11-06T22:13:56.914Z,54.80
2018-11-06T22:16:25.810Z,51.27
2018-11-06T22:18:54.133Z,51.47
2018-11-06T22:21:22.482Z,50.97
2018-11-06T22:23:50.807Z,47.07
2018-11-06T22:26:18.886Z,44.33
2018-11-06T22:28:46.906Z,42.90
2018-11-06T22:31:15.824Z,52.23
2018-11-06T22:33:44.178Z,52.80
2018-11-06T22:36:12.500Z,55.50
2018-11-06T22:38:40.821Z,56.93
2018-11-06T22:41:08.569Z,59.33
2018-11-06T22:43:37.503Z,61.40
2018-11-06T22:46:05.232Z,69.70
2018-11-06T22:48:33.601Z,64.27
2018-11-06T22:51:01.939Z,64.80
2018-11-06T22:53:30.267Z,60.47
2018-11-06T22:55:59.176Z,66.37
2018-11-06T22:58:26.919Z,87.00
2018-11-06T23:00:55.830Z,60.60
2018-11-06T23:03:24.164Z,56.90
2018-11-06T23:05:52.446Z,58.97
2018-11-06T23:08:20.246Z,54.17
2018-11-06T23:10:49.076Z,59.73
2018-11-06T23:13:17.984Z,55.60
2018-11-06T23:15:45.732Z,54.37
2018-11-06T23:18:14.657Z,58.53
2018-11-06T23:20:42.417Z,53.37
2018-11-06T23:23:11.322Z,54.60
2018-11-06T23:25:39.654Z,53.23
2018-11-06T23:28:07.982Z,54.53
2018-11-06T23:30:35.739Z,55.10
2018-11-06T23:33:04.070Z,60.40
2018-11-06T23:35:33.043Z,56.53
2018-11-06T23:38:01.376Z,53.67
2018-11-06T23:40:29.120Z,57.13
2018-11-06T23:42:57.442Z,53.90
2018-11-06T23:45:25.777Z,55.27
2018-11-06T23:47:54.105Z,48.10
2018-11-06T23:50:23.017Z,53.07
2018-11-06T23:52:51.352Z,52.13
2018-11-06T23:55:19.681Z,54.17
2018-11-06T23:57:48.014Z,52.40
